Time;durP1;ratioP1;P1;durP2;ratioP2;P2;SDS_P1;SDS_P2;PMS_P1;PMS_P2;Temp;Humidity;BMP_temperature;BMP_pressure;BME280_temperature;BME280_humidity;BME280_pressure;Samples;Min_cycle;Max_cycle;Signal;HPM_P1;HPM_P2
2021/12/02 00:02:26;;;;;;;16.35;3.50;;;4.60;99.90;;;5.07;100.00;98660.50;5056119;28;20507;-78
2021/12/02 00:04:52;;;;;;;11.48;3.00;;;4.50;99.90;;;5.07;100.00;98669.56;5057682;28;20029;-81
2021/12/02 00:07:18;;;;;;;18.70;3.08;;;4.50;99.90;;;5.05;100.00;98665.56;5057535;28;20491;-80
2021/12/02 00:09:47;;;;;;;11.95;3.03;;;4.50;99.90;;;5.01;100.00;98671.03;5056752;28;20092;-80
2021/12/02 00:12:13;;;;;;;9.45;2.92;;;4.50;99.90;;;5.01;100.00;98665.50;5039793;28;20115;-81
2021/12/02 00:14:45;;;;;;;9.38;2.85;;;4.50;99.90;;;4.98;100.00;98669.00;5039885;28;20400;-81
2021/12/02 00:17:39;;;;;;;10.65;3.17;;;4.50;99.90;;;5.00;100.00;98669.47;5038488;28;20029;-80
2021/12/02 00:23:28;;;;;;;11.85;2.95;;;4.50;99.90;;;5.03;100.00;98674.25;5040117;28;20503;-81
2021/12/02 00:26:09;;;;;;;9.55;3.17;;;4.50;99.90;;;5.07;100.00;98677.09;5020074;28;20041;-82
2021/12/02 00:28:38;;;;;;;11.18;2.70;;;4.50;99.90;;;5.08;100.00;98676.72;5037809;28;20513;-81
2021/12/02 00:31:22;;;;;;;11.25;3.88;;;4.60;99.90;;;5.11;100.00;98675.16;5038242;28;20025;-81
2021/12/02 00:33:57;;;;;;;13.07;2.97;;;4.60;99.90;;;5.07;100.00;98677.09;5020592;28;20034;-80
2021/12/02 00:36:28;;;;;;;11.38;2.53;;;4.60;99.90;;;5.08;100.00;98675.91;5044226;28;20030;-80
2021/12/02 00:38:59;;;;;;;9.88;2.78;;;4.50;99.90;;;5.03;100.00;98682.56;5040087;28;20036;-78
2021/12/02 00:41:28;;;;;;;12.00;3.60;;;4.60;99.90;;;5.06;100.00;98689.31;5054290;28;20509;-81
2021/12/02 00:43:59;;;;;;;10.38;3.65;;;4.50;99.90;;;5.06;100.00;98687.34;5044514;28;20463;-82
2021/12/02 00:46:33;;;;;;;8.88;2.85;;;4.60;99.90;;;5.08;100.00;98687.78;5036621;28;20125;-80
2021/12/02 00:49:04;;;;;;;11.98;3.45;;;4.50;99.90;;;5.09;100.00;98694.09;5037697;28;20552;-81
2021/12/02 00:51:35;;;;;;;10.93;3.20;;;4.50;99.90;;;5.09;100.00;98685.81;5019370;28;20052;-81
2021/12/02 00:54:13;;;;;;;10.35;2.15;;;4.50;99.90;;;5.07;100.00;98688.94;5036608;28;20396;-82
2021/12/02 00:56:41;;;;;;;7.00;2.47;;;4.50;99.90;;;5.09;100.00;98681.06;5019141;28;20051;-79
2021/12/02 00:59:09;;;;;;;10.50;2.92;;;4.50;99.90;;;5.11;100.00;98692.56;5036506;28;20057;-80
2021/12/02 01:01:38;;;;;;;11.00;3.15;;;4.50;99.90;;;5.14;100.00;98683.53;5018760;28;20034;-80
2021/12/02 01:04:22;;;;;;;12.00;2.70;;;4.60;99.90;;;5.12;100.00;98687.84;5018325;28;20104;-79
2021/12/02 01:06:49;;;;;;;12.88;3.33;;;4.50;99.90;;;5.10;100.00;98684.66;5036010;28;20022;-78
2021/12/02 01:09:14;;;;;;;14.68;3.35;;;4.50;99.90;;;5.08;100.00;98685.00;5018804;28;20080;-82
2021/12/02 01:11:42;;;;;;;17.85;3.78;;;4.50;99.90;;;5.10;100.00;98690.19;5018699;28;20034;-80
2021/12/02 01:14:10;;;;;;;16.27;2.72;;;4.50;99.90;;;5.06;100.00;98681.81;5017276;28;20490;-81
2021/12/02 01:16:36;;;;;;;9.38;2.47;;;4.50;99.90;;;5.05;100.00;98688.50;5036030;28;20033;-80
2021/12/02 01:19:05;;;;;;;13.00;2.60;;;4.50;99.90;;;5.05;100.00;98688.50;5034882;28;20104;-81
2021/12/02 01:21:32;;;;;;;11.00;2.72;;;4.50;99.90;;;5.08;100.00;98687.78;5044054;28;20111;-80
2021/12/02 01:24:05;;;;;;;9.35;2.65;;;4.60;99.90;;;5.16;100.00;98692.28;5037601;28;20087;-79
2021/12/02 01:26:35;;;;;;;14.65;2.72;;;4.60;99.90;;;5.13;100.00;98695.78;5037371;28;20028;-80
2021/12/02 01:29:04;;;;;;;10.68;2.85;;;4.60;99.90;;;5.13;100.00;98697.75;5055354;28;20117;-80
2021/12/02 01:31:34;;;;;;;14.70;2.83;;;4.60;99.90;;;5.16;100.00;98706.13;5036410;28;20032;-80
2021/12/02 01:34:08;;;;;;;9.45;2.72;;;4.60;99.90;;;5.15;100.00;98700.94;5054881;28;20476;-78
2021/12/02 01:36:41;;;;;;;7.20;2.70;;;4.60;99.90;;;5.15;100.00;98696.19;5036527;28;20032;-79
2021/12/02 01:39:09;;;;;;;14.70;2.92;;;4.60;99.90;;;5.14;100.00;98696.56;5036229;28;20133;-80
2021/12/02 01:41:49;;;;;;;10.68;3.03;;;4.60;99.90;;;5.26;100.00;98708.25;5054224;28;20056;-81
2021/12/02 01:44:19;;;;;;;10.70;2.80;;;4.60;99.90;;;5.29;100.00;98709.47;5052891;28;20460;-81
2021/12/02 01:46:54;;;;;;;13.40;3.22;;;4.60;99.90;;;5.31;100.00;98707.13;5053969;28;20094;-80
2021/12/02 01:49:29;;;;;;;14.10;2.63;;;4.70;99.90;;;5.34;100.00;98711.94;5035921;28;20082;-81
2021/12/02 01:51:56;;;;;;;14.82;3.20;;;4.70;99.90;;;5.39;100.00;98703.34;5053885;28;20017;-80
2021/12/02 01:54:27;;;;;;;16.45;3.33;;;4.70;99.90;;;5.31;100.00;98707.13;5053695;28;20025;-79
2021/12/02 01:57:05;;;;;;;15.82;2.72;;;4.70;99.90;;;5.37;100.00;98700.13;5035672;28;20096;-80
2021/12/02 01:59:38;;;;;;;8.60;2.70;;;4.70;99.90;;;5.26;100.00;98707.47;5052720;28;20029;-78
2021/12/02 02:02:10;;;;;;;9.40;2.15;;;4.70;99.90;;;5.30;100.00;98705.53;5035651;28;20120;-80
2021/12/02 02:04:37;;;;;;;6.90;2.42;;;4.70;99.90;;;5.23;100.00;98694.38;5035326;28;20052;-80
2021/12/02 02:07:15;;;;;;;10.73;2.75;;;4.70;99.90;;;5.19;100.00;98704.56;5052267;28;20060;-80
2021/12/02 02:09:43;;;;;;;8.70;2.35;;;4.60;99.90;;;5.10;100.00;98709.56;5053900;28;20028;-81
2021/12/02 02:12:13;;;;;;;15.25;3.30;;;4.60;99.90;;;5.07;100.00;98702.75;5053844;28;20451;-80
2021/12/02 02:14:43;;;;;;;10.95;2.72;;;4.60;99.90;;;5.12;100.00;98704.44;5036010;28;20033;-79
2021/12/02 02:17:26;;;;;;;15.80;2.88;;;4.60;99.90;;;5.05;100.00;98691.28;5052415;28;20381;-79
2021/12/02 02:19:54;;;;;;;9.73;2.42;;;4.50;99.90;;;5.12;100.00;98696.13;5053870;28;20472;-79
2021/12/02 02:22:22;;;;;;;11.95;2.60;;;4.50;99.90;;;5.08;100.00;98698.84;5053105;28;20100;-80
2021/12/02 02:24:52;;;;;;;14.27;2.47;;;4.50;99.90;;;5.09;100.00;98694.91;5053705;28;20120;-79
2021/12/02 02:27:20;;;;;;;14.70;3.25;;;4.60;99.90;;;5.05;100.00;98687.72;5053784;28;20430;-79
2021/12/02 02:29:46;;;;;;;12.90;2.83;;;4.50;99.90;;;5.07;100.00;98685.38;5052303;28;20040;-79
2021/12/02 02:32:15;;;;;;;19.67;3.55;;;4.50;99.90;;;5.11;100.00;98683.47;5054331;28;20221;-79
2021/12/02 02:34:40;;;;;;;13.70;3.53;;;4.50;99.90;;;5.11;100.00;98692.56;5054904;28;20044;-80
2021/12/02 02:37:07;;;;;;;10.60;2.92;;;4.60;99.90;;;5.09;100.00;98691.34;5036577;28;20033;-79
2021/12/02 02:39:35;;;;;;;16.02;4.53;;;4.50;99.90;;;5.08;100.00;98698.03;5054397;28;20039;-79
2021/12/02 02:42:03;;;;;;;8.23;2.50;;;4.50;99.90;;;5.10;100.00;98690.19;5037054;28;20372;-81
2021/12/02 02:44:32;;;;;;;10.68;2.83;;;4.50;99.90;;;5.14;100.00;98693.78;5037042;28;20029;-80
2021/12/02 02:47:02;;;;;;;17.80;2.65;;;4.60;99.90;;;5.09;100.00;98691.34;5049772;23;20034;-81
2021/12/02 02:49:36;;;;;;;8.73;3.08;;;4.50;99.90;;;5.11;100.00;98694.53;5052306;28;20025;-83
2021/12/02 02:52:04;;;;;;;13.20;3.13;;;4.60;99.90;;;5.11;100.00;98689.00;5035054;28;20482;-80
2021/12/02 02:54:31;;;;;;;12.52;3.30;;;4.60;99.90;;;5.14;100.00;98691.03;5034618;28;20030;-82
2021/12/02 02:57:01;;;;;;;14.73;3.10;;;4.60;99.90;;;5.12;100.00;98696.13;5052125;28;20294;-80
2021/12/02 02:59:44;;;;;;;12.98;3.97;;;4.60;99.90;;;5.08;100.00;98690.53;5052146;28;20029;-83
2021/12/02 03:07:45;;;;;;;6.78;2.63;;;4.60;99.90;;;5.15;100.00;98696.19;5048772;28;20056;-80
2021/12/02 03:10:41;;;;;;;7.50;2.38;;;4.60;99.90;;;5.31;100.00;98696.88;5047949;28;20076;-82
2021/12/02 03:18:31;;;;;;;15.57;3.47;;;4.50;99.90;;;4.92;100.00;98719.47;5038256;28;20113;-81
2021/12/02 03:20:57;;;;;;;13.30;4.20;;;4.40;99.90;;;4.77;100.00;98710.13;5024169;28;20060;-82
2021/12/02 03:23:23;;;;;;;9.95;3.72;;;4.30;99.90;;;4.64;100.00;98709.50;5041658;28;20053;-83
2021/12/02 03:25:50;;;;;;;11.02;4.60;;;4.20;99.90;;;4.55;100.00;98706.16;5042858;28;20029;-84
2021/12/02 03:28:17;;;;;;;11.85;4.13;;;4.10;99.90;;;4.52;100.00;98706.09;5059176;28;20032;-84
2021/12/02 03:30:43;;;;;;;12.45;4.65;;;4.00;99.90;;;4.54;100.00;98715.59;5065536;28;20033;-84
2021/12/02 03:33:09;;;;;;;11.35;4.07;;;4.00;99.90;;;4.50;100.00;98711.97;5066218;28;20058;-84
2021/12/02 03:35:38;;;;;;;5.70;3.95;;;4.00;99.90;;;4.47;100.00;98717.41;5046577;28;20063;-78
2021/12/02 03:38:07;;;;;;;8.13;3.53;;;3.90;99.90;;;4.44;100.00;98710.66;5066879;28;20040;-83
2021/12/02 03:40:34;;;;;;;7.30;3.63;;;3.90;99.90;;;4.45;100.00;98715.03;5049285;28;20039;-82
2021/12/02 03:43:01;;;;;;;8.82;4.88;;;3.80;99.90;;;4.43;100.00;98706.28;5066771;28;20033;-81
2021/12/02 03:45:27;;;;;;;10.57;4.90;;;3.80;99.90;;;4.38;100.00;98706.59;5068128;28;20047;-82
2021/12/02 03:48:03;;;;;;;6.65;4.32;;;3.80;99.90;;;4.32;100.00;98713.59;5051925;28;20033;-81
2021/12/02 03:50:29;;;;;;;14.73;6.57;;;3.80;99.90;;;4.24;100.00;98709.06;5056554;28;20044;-80
2021/12/02 03:52:54;;;;;;;12.65;6.43;;;3.80;99.90;;;4.27;100.00;98718.59;5065377;28;20032;-84
2021/12/02 03:55:20;;;;;;;14.35;6.80;;;3.70;99.90;;;4.25;100.00;98713.44;5049586;28;20029;-81
2021/12/02 03:57:46;;;;;;;14.07;6.65;;;3.70;99.90;;;4.25;100.00;98714.22;5049214;28;20036;-82
2021/12/02 04:00:13;;;;;;;10.88;6.10;;;3.70;99.90;;;4.19;100.00;98706.59;5065003;28;20029;-84
2021/12/02 04:02:39;;;;;;;10.93;6.45;;;3.60;99.90;;;4.09;100.00;98704.41;5064595;28;20029;-80
2021/12/02 04:05:08;;;;;;;9.70;6.22;;;3.60;99.90;;;3.98;100.00;98698.63;5047898;28;20040;-83
2021/12/02 04:07:37;;;;;;;10.50;6.85;;;3.50;99.90;;;3.93;100.00;98695.38;5046841;28;20032;-83
2021/12/02 04:10:06;;;;;;;11.95;6.70;;;3.40;99.90;;;3.89;100.00;98698.03;5063394;28;20036;-83
2021/12/02 04:12:45;;;;;;;10.85;6.57;;;3.40;99.90;;;3.90;100.00;98699.66;5046557;28;20488;-82
2021/12/02 04:15:24;;;;;;;10.27;6.50;;;3.40;99.90;;;3.87;100.00;98703.16;5046191;28;20620;-83
2021/12/02 04:17:53;;;;;;;7.93;6.43;;;3.40;99.90;;;3.86;100.00;98697.97;5044899;28;20055;-83
2021/12/02 04:20:24;;;;;;;13.50;6.13;;;3.40;99.90;;;3.91;100.00;98692.97;5045175;28;20141;-85
2021/12/02 04:22:57;;;;;;;12.05;6.00;;;3.40;99.90;;;3.93;100.00;98698.13;5064683;28;20033;-83
2021/12/02 04:25:26;;;;;;;13.73;5.80;;;3.40;99.90;;;3.91;100.00;98697.69;5065198;28;20039;-83
2021/12/02 04:27:54;;;;;;;14.02;6.40;;;3.40;99.90;;;3.88;100.00;98698.44;5048123;28;20029;-82
2021/12/02 04:30:26;;;;;;;11.85;6.05;;;3.40;99.90;;;3.91;100.00;98706.78;5049481;28;20053;-85
2021/12/02 04:32:55;;;;;;;10.18;6.47;;;3.40;99.90;;;3.97;100.00;98710.06;5070261;28;20507;-82
2021/12/02 04:35:22;;;;;;;11.75;6.03;;;3.40;99.90;;;4.05;100.00;98722.84;5067288;28;20040;-85
2021/12/02 04:37:52;;;;;;;15.57;6.72;;;3.40;99.90;;;4.09;100.00;98720.97;5046616;28;20113;-79
2021/12/02 04:40:21;;;;;;;21.27;8.38;;;3.40;99.90;;;4.18;100.00;98716.84;5047190;28;20029;-84
2021/12/02 04:42:49;;;;;;;21.60;8.85;;;3.50;99.90;;;4.24;100.00;98720.91;5047592;28;20028;-84
2021/12/02 04:45:15;;;;;;;20.30;7.30;;;3.60;99.90;;;4.24;100.00;98725.63;5068567;28;20027;-83
2021/12/02 04:47:42;;;;;;;22.85;8.30;;;3.60;99.90;;;4.28;100.00;98714.66;5069523;28;20036;-81
2021/12/02 04:50:11;;;;;;;21.58;7.20;;;3.60;99.90;;;4.24;100.00;98726.44;5069465;28;20037;-83
2021/12/02 04:52:38;;;;;;;23.10;6.65;;;3.60;99.90;;;4.34;100.00;98732.53;5046057;28;20048;-83
2021/12/02 04:55:08;;;;;;;19.27;6.68;;;3.70;99.90;;;4.40;100.00;98731.91;5043990;28;20031;-83
2021/12/02 04:57:34;;;;;;;15.48;5.07;;;3.70;99.90;;;4.44;100.00;98724.50;5045042;28;20040;-80
2021/12/02 05:00:00;;;;;;;7.07;4.40;;;3.70;99.90;;;4.41;100.00;98730.75;5040191;28;20028;-83
2021/12/02 05:02:26;;;;;;;8.55;4.07;;;3.80;99.90;;;4.47;100.00;98731.25;5047060;28;20093;-84
2021/12/02 05:04:52;;;;;;;13.13;5.43;;;3.80;99.90;;;4.51;100.00;98732.13;5048909;28;20036;-83
2021/12/02 05:07:18;;;;;;;11.90;4.70;;;3.80;99.90;;;4.52;100.00;98726.25;5067429;28;20032;-81
2021/12/02 05:09:47;;;;;;;13.00;5.78;;;3.80;99.90;;;4.46;100.00;98722.19;5050008;28;20021;-84
2021/12/02 05:12:13;;;;;;;11.88;6.05;;;3.80;99.90;;;4.44;100.00;98720.91;5068411;28;20033;-82
2021/12/02 05:14:38;;;;;;;19.52;8.63;;;3.90;99.90;;;4.50;100.00;98731.31;5051025;28;20029;-83
2021/12/02 05:17:04;;;;;;;17.92;8.13;;;3.80;99.90;;;4.52;100.00;98729.00;5066772;28;20048;-81
2021/12/02 05:19:30;;;;;;;14.15;7.28;;;3.80;99.90;;;4.46;100.00;98730.47;5068706;28;20436;-83
2021/12/02 05:21:59;;;;;;;11.45;6.95;;;3.80;99.90;;;4.48;100.00;98730.91;5049543;28;20055;-80
2021/12/02 05:24:25;;;;;;;30.30;9.88;;;3.80;99.90;;;4.44;100.00;98720.91;5049182;28;20044;-82
2021/12/02 05:26:51;;;;;;;24.95;10.48;;;3.80;99.90;;;4.42;100.00;98720.50;5067768;28;20021;-80
2021/12/02 05:29:16;;;;;;;17.02;8.40;;;3.80;99.90;;;4.46;100.00;98713.88;5068229;28;20028;-83
2021/12/02 05:31:42;;;;;;;19.13;8.95;;;3.90;99.90;;;4.55;100.00;98708.13;5069889;28;20029;-81
2021/12/02 05:34:08;;;;;;;17.70;9.02;;;3.90;99.90;;;4.48;100.00;98705.22;5052005;28;20032;-81
2021/12/02 05:36:34;;;;;;;25.25;12.23;;;3.80;99.90;;;4.47;100.00;98715.47;5068940;28;20068;-81
2021/12/02 05:39:04;;;;;;;13.05;7.22;;;3.90;99.90;;;4.52;100.00;98712.44;5052429;28;20025;-81
2021/12/02 05:41:31;;;;;;;20.45;10.48;;;3.90;99.90;;;4.46;100.00;98711.13;5069228;28;20044;-81
2021/12/02 05:43:59;;;;;;;21.00;10.63;;;3.80;99.90;;;4.43;100.00;98711.03;5069395;28;20077;-83
2021/12/02 05:46:25;;;;;;;15.65;7.55;;;3.80;99.90;;;4.28;100.00;98720.19;5052868;28;20029;-82
2021/12/02 05:48:51;;;;;;;9.85;6.95;;;3.70;99.90;;;4.22;100.00;98723.25;5057904;28;20033;-83
2021/12/02 05:51:17;;;;;;;15.82;8.35;;;3.60;99.90;;;4.32;100.00;98724.63;5055409;28;20114;-84
2021/12/02 05:53:43;;;;;;;13.80;8.27;;;3.60;99.90;;;4.18;100.00;98727.91;5046078;28;20025;-84
2021/12/02 05:56:09;;;;;;;15.35;8.98;;;3.60;99.90;;;4.27;100.00;98724.91;5065093;28;20037;-86
2021/12/02 05:58:35;;;;;;;12.32;7.43;;;3.60;99.90;;;4.26;100.00;98739.91;5046983;28;20040;-82
2021/12/02 06:01:03;;;;;;;12.60;7.28;;;3.60;99.90;;;4.29;100.00;98741.94;5048222;28;20029;-82
2021/12/02 06:03:29;;;;;;;14.60;6.93;;;3.70;99.90;;;4.27;100.00;98741.50;5048303;28;20392;-82
2021/12/02 06:05:54;;;;;;;11.65;7.82;;;3.60;99.90;;;4.22;100.00;98737.06;5066434;28;20045;-85
2021/12/02 06:08:21;;;;;;;12.48;6.45;;;3.60;99.90;;;4.18;100.00;98729.84;5050005;28;20036;-80
2021/12/02 06:10:47;;;;;;;11.27;4.90;;;3.60;99.90;;;4.20;100.00;98735.84;5049381;28;20035;-83
2021/12/02 06:13:16;;;;;;;20.85;5.45;;;3.60;99.90;;;4.34;100.00;98747.16;5067634;28;20025;-81
2021/12/02 06:15:42;;;;;;;16.23;4.80;;;3.60;99.90;;;4.36;100.00;98744.06;5068184;28;20029;-82
2021/12/02 06:18:08;;;;;;;15.30;4.28;;;3.60;99.90;;;4.35;100.00;98754.31;5067521;28;20043;-83
2021/12/02 06:20:40;;;;;;;7.65;3.10;;;3.70;99.90;;;4.27;100.00;98754.53;5049382;28;20032;-83
2021/12/02 06:23:06;;;;;;;12.20;3.03;;;3.70;99.90;;;4.29;100.00;98755.75;5048051;28;20017;-82
2021/12/02 06:28:04;;;;;;;11.27;3.40;;;3.70;99.90;;;4.22;100.00;98756.41;5048480;28;20026;-82
2021/12/02 06:30:33;;;;;;;10.02;2.95;;;3.60;99.90;;;4.23;100.00;98763.53;5047242;28;20029;-82
2021/12/02 06:32:59;;;;;;;9.40;2.92;;;3.60;99.90;;;4.27;100.00;98760.84;5030361;28;20029;-80
2021/12/02 06:35:29;;;;;;;11.32;3.17;;;3.60;99.90;;;4.21;100.00;98763.09;5029968;28;20425;-83
2021/12/02 06:37:56;;;;;;;8.30;2.97;;;3.60;99.90;;;4.21;100.00;98776.09;5048692;28;20030;-84
2021/12/02 06:40:22;;;;;;;11.10;3.20;;;3.60;99.90;;;4.09;100.00;98774.28;5030602;28;20060;-81
2021/12/02 06:42:52;;;;;;;11.63;4.05;;;3.50;99.90;;;4.23;100.00;98784.84;5048255;28;20029;-82
2021/12/02 06:45:25;;;;;;;12.98;3.60;;;3.60;99.90;;;4.23;100.00;98787.59;5032328;28;20053;-83
2021/12/02 06:47:53;;;;;;;17.10;4.80;;;3.60;99.90;;;4.20;100.00;98791.91;5031005;28;20040;-81
2021/12/02 06:50:20;;;;;;;13.52;3.92;;;3.60;99.90;;;4.17;100.00;98795.34;5049872;28;20044;-82
2021/12/02 06:52:52;;;;;;;9.90;3.47;;;3.60;99.90;;;4.24;100.00;98791.94;5047393;28;20116;-82
2021/12/02 06:55:20;;;;;;;9.80;3.88;;;3.60;99.90;;;4.28;100.00;98800.31;5047194;28;20033;-82
2021/12/02 06:57:47;;;;;;;16.92;4.43;;;3.60;99.90;;;4.25;100.00;98799.09;5046267;28;20034;-82
2021/12/02 07:00:19;;;;;;;9.77;4.22;;;3.60;99.90;;;4.16;100.00;98793.78;5030394;28;20176;-82
2021/12/02 07:02:47;;;;;;;7.72;4.10;;;3.60;99.90;;;4.21;100.00;98796.25;5047259;28;20101;-83
2021/12/02 07:05:17;;;;;;;7.07;3.13;;;3.60;99.90;;;4.23;100.00;98798.66;5030110;28;20032;-81
2021/12/02 07:07:45;;;;;;;7.50;3.10;;;3.60;99.90;;;4.18;100.00;98809.97;5030968;28;20030;-80
2021/12/02 07:10:22;;;;;;;7.43;2.80;;;3.60;99.90;;;4.12;100.00;98801.16;5031059;28;20045;-81
2021/12/02 07:12:52;;;;;;;7.38;3.00;;;3.60;99.90;;;4.23;100.00;98807.75;5034078;28;20037;-78
2021/12/02 07:15:25;;;;;;;6.80;2.67;;;3.50;99.90;;;4.19;100.00;98814.34;5051692;28;20030;-84
2021/12/02 07:17:55;;;;;;;5.22;2.85;;;3.60;99.90;;;4.21;100.00;98818.34;5031806;28;20176;-81
2021/12/02 07:20:29;;;;;;;8.68;2.95;;;3.60;99.90;;;4.21;100.00;98823.06;5048783;28;20036;-81
2021/12/02 07:22:58;;;;;;;12.95;3.92;;;3.60;99.90;;;4.14;100.00;98831.22;5050786;28;20025;-81
2021/12/02 07:25:25;;;;;;;6.80;3.47;;;3.60;99.90;;;4.18;100.00;98830.13;5033677;28;20029;-79
2021/12/02 07:27:51;;;;;;;5.95;3.25;;;3.60;99.90;;;4.17;100.00;98834.03;5033477;28;20079;-81
2021/12/02 07:30:20;;;;;;;5.68;3.13;;;3.60;99.90;;;4.12;100.00;98830.75;5033287;28;20030;-80
2021/12/02 07:32:59;;;;;;;4.07;2.92;;;3.60;99.90;;;4.02;100.00;98826.59;5051495;28;20507;-82
2021/12/02 07:35:26;;;;;;;7.28;3.10;;;3.50;99.90;;;3.92;100.00;98832.66;5032828;28;20082;-81
2021/12/02 07:37:58;;;;;;;8.00;3.35;;;3.40;99.90;;;3.91;100.00;98842.13;5032749;28;20053;-82
2021/12/02 07:40:33;;;;;;;7.78;3.30;;;3.40;99.90;;;3.84;100.00;98830.88;5032891;28;20032;-82
2021/12/02 07:43:01;;;;;;;11.43;4.00;;;3.30;99.90;;;3.86;100.00;98844.31;5032396;28;20116;-82
2021/12/02 07:45:34;;;;;;;6.97;4.25;;;3.30;99.90;;;3.96;100.00;98854.84;5031706;28;20037;-81
2021/12/02 07:48:01;;;;;;;8.98;4.50;;;3.30;99.90;;;3.92;100.00;98846.47;5030885;28;20057;-83
2021/12/02 07:50:27;;;;;;;14.63;5.70;;;3.30;99.90;;;3.94;100.00;98841.41;5031740;28;20056;-82
2021/12/02 07:53:02;;;;;;;9.65;4.85;;;3.30;99.90;;;3.92;100.00;98857.50;5031257;28;20298;-85
2021/12/02 07:55:30;;;;;;;10.70;6.05;;;3.30;99.90;;;3.99;100.00;98859.63;5048393;28;20112;-84
2021/12/02 07:57:57;;;;;;;12.20;6.75;;;3.30;99.90;;;3.95;100.00;98864.31;5046308;28;20401;-82
2021/12/02 08:00:28;;;;;;;12.75;7.50;;;3.30;99.90;;;3.90;100.00;98870.88;5031679;28;20021;-84
2021/12/02 08:03:26;;;;;;;12.98;7.78;;;3.30;99.90;;;3.91;100.00;98864.22;5056652;28;20030;-77
2021/12/02 08:05:54;;;;;;;17.25;9.57;;;3.30;99.90;;;3.99;100.00;98878.97;5036541;28;20046;-80
2021/12/02 08:08:20;;;;;;;18.00;11.60;;;3.30;99.90;;;3.94;100.00;98879.25;5051749;28;20041;-83
2021/12/02 08:10:51;;;;;;;15.38;9.85;;;3.30;99.90;;;4.05;100.00;98880.31;5026688;28;20026;-83
2021/12/02 08:13:19;;;;;;;15.25;9.80;;;3.40;99.90;;;4.02;100.00;98881.81;5042871;28;20064;-81
2021/12/02 08:15:46;;;;;;;21.55;11.30;;;3.40;99.90;;;4.07;100.00;98887.09;5042872;28;20029;-82
2021/12/02 08:18:12;;;;;;;15.25;10.10;;;3.40;99.90;;;4.08;100.00;98885.13;5026062;28;20060;-81
2021/12/02 08:20:38;;;;;;;14.65;10.38;;;3.40;99.90;;;4.03;100.00;98885.41;5049099;28;20041;-83
2021/12/02 08:23:09;;;;;;;14.75;8.70;;;3.50;99.90;;;4.15;100.00;98890.81;5050668;28;20079;-83
2021/12/02 08:25:35;;;;;;;14.02;8.32;;;3.50;99.90;;;4.13;100.00;98891.19;5071781;28;20036;-83
2021/12/02 08:28:08;;;;;;;12.00;8.05;;;3.50;99.90;;;4.15;100.00;98896.34;5055635;28;20028;-85
2021/12/02 08:30:37;;;;;;;10.77;4.70;;;3.50;99.90;;;4.13;100.00;98902.25;5052094;28;20019;-80
2021/12/02 08:33:06;;;;;;;7.40;4.82;;;3.50;99.90;;;4.17;100.00;98903.09;5049569;28;20476;-80
2021/12/02 08:35:36;;;;;;;6.68;3.40;;;3.50;99.90;;;4.07;100.00;98902.88;5051353;28;20418;-79
2021/12/02 08:38:08;;;;;;;12.40;4.65;;;3.50;99.90;;;4.07;100.00;98903.69;5053193;28;20048;-82
2021/12/02 08:40:36;;;;;;;9.05;3.80;;;3.40;99.90;;;4.14;100.00;98914.88;5070187;28;20039;-81
2021/12/02 08:43:24;;;;;;;5.35;3.45;;;3.50;99.90;;;4.16;100.00;98915.34;5068529;28;20025;-80
2021/12/02 08:45:50;;;;;;;8.82;4.75;;;3.50;99.90;;;4.20;100.00;98924.53;5066546;28;20036;-82
2021/12/02 08:48:21;;;;;;;21.83;10.63;;;3.60;99.90;;;4.29;100.00;98932.63;5042689;23;20828;-83
2021/12/02 08:50:47;;;;;;;9.18;4.05;;;3.60;99.90;;;4.36;100.00;98937.53;5019020;28;20033;-80
2021/12/02 08:53:14;;;;;;;6.18;4.93;;;3.70;99.90;;;4.10;100.00;98935.31;5018978;28;20121;-79
2021/12/02 08:55:40;;;;;;;5.25;3.20;;;3.50;99.90;;;3.95;100.00;98936.09;5035888;28;20056;-82
2021/12/02 08:58:09;;;;;;;10.73;8.32;;;3.40;99.90;;;3.94;100.00;98943.59;5036818;28;20034;-81
2021/12/02 09:00:39;;;;;;;4.57;3.47;;;3.40;99.90;;;3.91;100.00;98941.53;5036615;28;20048;-80
2021/12/02 09:03:12;;;;;;;2.67;1.95;;;3.30;99.90;;;3.94;100.00;98946.34;5035586;28;20033;-81
2021/12/02 09:05:39;;;;;;;3.00;2.38;;;3.30;99.90;;;3.96;100.00;98945.97;5038477;28;20029;-81
2021/12/02 09:08:06;;;;;;;3.10;1.88;;;3.30;99.90;;;3.95;100.00;98947.16;5024316;28;20341;-80
2021/12/02 09:10:34;;;;;;;2.78;1.60;;;3.30;99.90;;;3.91;100.00;98966.41;5033759;28;20034;-77
2021/12/02 09:13:07;;;;;;;2.45;1.77;;;3.30;99.90;;;3.92;100.00;98967.16;5053858;28;20091;-79
2021/12/02 09:15:35;;;;;;;4.75;1.80;;;3.30;99.90;;;3.98;100.00;98974.06;5044325;28;20520;-80
2021/12/02 09:18:08;;;;;;;6.55;1.83;;;3.30;99.90;;;3.99;100.00;98967.38;5036309;28;20033;-81
2021/12/02 09:20:35;;;;;;;2.85;1.95;;;3.30;99.90;;;3.99;100.00;98968.16;5018132;28;20033;-78
2021/12/02 09:23:02;;;;;;;3.83;2.47;;;3.40;99.90;;;4.22;100.00;98971.13;5055920;28;20060;-81
2021/12/02 09:25:31;;;;;;;5.65;4.13;;;3.50;99.90;;;4.61;100.00;98977.63;5056302;28;20033;-77
2021/12/02 09:28:00;;;;;;;12.75;7.00;;;3.80;99.90;;;4.76;100.00;98969.28;5036761;28;20043;-79
2021/12/02 09:30:30;;;;;;;13.45;8.05;;;4.00;99.90;;;4.57;100.00;98966.47;5037582;28;20040;-79
2021/12/02 09:32:56;;;;;;;9.38;5.75;;;3.90;99.90;;;4.51;100.00;98975.38;5037579;28;20115;-81
2021/12/02 09:35:26;;;;;;;4.68;3.92;;;3.80;99.90;;;4.67;100.00;98979.75;5036230;28;20021;-82
2021/12/02 09:37:52;;;;;;;6.88;3.95;;;3.90;99.90;;;4.95;100.00;98979.59;5055881;28;20105;-79
2021/12/02 09:40:19;;;;;;;5.38;2.88;;;4.10;99.90;;;5.10;100.00;98978.75;5054781;28;20472;-80
2021/12/02 09:42:47;;;;;;;4.13;3.35;;;4.20;99.90;;;5.13;100.00;98983.56;5054951;28;20108;-81
2021/12/02 09:45:17;;;;;;;6.40;3.72;;;4.40;99.90;;;5.40;100.00;98998.34;5055018;28;20113;-81
2021/12/02 09:47:49;;;;;;;3.50;2.20;;;4.50;99.90;;;5.43;100.00;98996.81;5055312;28;20029;-80
2021/12/02 09:50:37;;;;;;;4.55;2.25;;;4.60;99.90;;;5.24;100.00;99001.19;5055166;28;20043;-81
2021/12/02 09:53:07;;;;;;;5.55;2.70;;;4.50;99.90;;;5.11;100.00;98990.59;5036861;28;20056;-79
2021/12/02 09:58:18;;;;;;;11.70;3.25;;;4.20;99.90;;;4.82;100.00;98999.44;5055560;28;20511;-81
2021/12/02 10:00:57;;;;;;;4.13;2.50;;;4.10;99.90;;;4.71;100.00;99002.75;5037199;28;20029;-80
2021/12/02 10:03:29;;;;;;;4.78;2.53;;;4.10;99.90;;;4.71;100.00;98988.94;5055177;28;20025;-80
2021/12/02 10:06:25;;;;;;;5.03;3.08;;;4.10;99.90;;;4.71;100.00;99002.75;5037390;28;20048;-79
2021/12/02 10:09:12;;;;;;;11.20;5.63;;;4.10;99.90;;;4.54;100.00;98997.59;5037373;28;20484;-81
2021/12/02 10:11:51;;;;;;;10.45;6.57;;;4.00;99.90;;;4.65;100.00;99001.44;5055277;28;20059;-80
2021/12/02 10:14:23;;;;;;;9.45;6.05;;;4.00;99.90;;;4.55;100.00;99001.16;5055473;28;20040;-80
2021/12/02 10:17:15;;;;;;;4.25;3.72;;;3.90;99.90;;;4.46;100.00;98997.78;5054390;28;20362;-81
2021/12/02 10:20:22;;;;;;;5.50;3.65;;;3.90;99.90;;;4.49;100.00;98995.13;5036631;28;20040;-79
2021/12/02 10:23:19;;;;;;;7.78;4.07;;;3.90;99.90;;;4.55;100.00;99004.75;5015025;28;20378;-79
2021/12/02 10:26:05;;;;;;;5.93;3.05;;;3.90;99.90;;;4.49;100.00;99006.19;5015435;28;20092;-80
2021/12/02 10:28:41;;;;;;;;;;;3.90;99.90;;;4.51;100.00;99000.28;5015001;28;20041;-82
2021/12/02 10:31:20;;;;;;;4.47;2.83;;;3.90;99.90;;;4.48;100.00;99009.28;5016052;28;20373;-83
2021/12/02 10:33:56;;;;;;;5.22;3.65;;;3.80;99.90;;;4.46;100.00;99004.13;4998421;28;20030;-80
2021/12/02 10:36:39;;;;;;;9.45;4.65;;;3.80;99.90;;;4.41;100.00;99000.81;4997388;28;20026;-78
2021/12/02 10:39:22;;;;;;;6.65;3.55;;;3.80;99.90;;;4.37;100.00;99009.00;4997077;28;20026;-83
2021/12/02 10:42:09;;;;;;;5.80;3.95;;;3.80;99.90;;;4.30;100.00;99017.13;5015324;28;20112;-79
2021/12/02 10:44:40;;;;;;;6.32;4.28;;;3.80;99.90;;;4.29;100.00;99018.28;5009484;28;20037;-80
2021/12/02 10:47:15;;;;;;;7.35;4.20;;;3.70;99.90;;;4.34;100.00;99011.69;5015298;28;20477;-80
2021/12/02 10:50:11;;;;;;;8.68;3.42;;;3.80;99.90;;;4.43;100.00;99018.63;4997696;28;20033;-80
2021/12/02 10:52:37;;;;;;;5.40;3.10;;;3.80;99.90;;;4.44;100.00;99017.47;5014678;28;20116;-81
2021/12/02 10:55:14;;;;;;;7.00;3.50;;;3.80;99.90;;;4.45;100.00;99016.34;4996729;28;20276;-79
2021/12/02 10:57:53;;;;;;;5.30;3.42;;;3.80;99.90;;;4.47;100.00;99015.97;5016617;28;20041;-81